createdAt,value
2023-03-12T00:00:49.514Z,15.70
2023-03-12T00:03:38.007Z,15.70
2023-03-12T00:06:26.562Z,15.70
2023-03-12T00:09:15.015Z,15.70
2023-03-12T00:12:03.710Z,15.60
2023-03-12T00:14:52.380Z,15.60
2023-03-12T00:20:30.972Z,15.50
2023-03-12T00:23:19.449Z,15.20
2023-03-12T00:26:10.245Z,14.90
2023-03-12T00:28:58.751Z,14.80
2023-03-12T00:31:47.787Z,14.90
2023-03-12T00:34:37.791Z,15.10
2023-03-12T00:37:26.323Z,15.00
2023-03-12T00:40:15.353Z,14.80
2023-03-12T00:43:03.891Z,14.80
2023-03-12T00:45:52.421Z,14.80
2023-03-12T00:48:51.995Z,14.90
2023-03-12T00:51:41.963Z,15.00
2023-03-12T00:54:30.356Z,15.10
2023-03-12T00:57:48.799Z,15.10
2023-03-12T01:00:37.377Z,15.10
2023-03-12T01:03:25.877Z,15.00
2023-03-12T01:06:14.552Z,15.00
2023-03-12T01:09:05.546Z,14.90
2023-03-12T01:11:54.121Z,14.80
2023-03-12T01:14:42.638Z,14.80
2023-03-12T01:17:31.120Z,14.80
2023-03-12T01:20:19.882Z,14.90
2023-03-12T01:23:08.458Z,14.80
2023-03-12T01:25:59.427Z,14.80
2023-03-12T01:28:47.997Z,14.80
2023-03-12T01:31:36.588Z,14.80
2023-03-12T01:34:25.032Z,14.90
2023-03-12T01:37:13.554Z,14.90
2023-03-12T01:40:02.301Z,15.00
2023-03-12T01:42:55.326Z,15.00
2023-03-12T01:46:25.138Z,15.00
2023-03-12T01:49:17.404Z,14.90
2023-03-12T01:52:10.256Z,14.90
2023-03-12T01:55:03.619Z,14.80
2023-03-12T01:57:57.831Z,14.90
2023-03-12T02:00:46.508Z,14.90
2023-03-12T02:03:36.925Z,15.00
2023-03-12T02:06:30.287Z,14.90
2023-03-12T02:09:21.564Z,15.00
2023-03-12T02:12:11.334Z,15.00
2023-03-12T02:15:01.292Z,15.00
2023-03-12T02:17:49.772Z,15.10
2023-03-12T02:20:44.042Z,15.10
2023-03-12T02:23:36.509Z,15.10
2023-03-12T02:26:29.345Z,15.10
2023-03-12T02:29:18.470Z,15.00
2023-03-12T02:32:09.157Z,15.00
2023-03-12T02:34:58.041Z,15.00
2023-03-12T02:37:50.601Z,14.90
2023-03-12T02:40:43.279Z,14.90
2023-03-12T02:43:33.345Z,14.90
2023-03-12T02:46:22.502Z,14.80
2023-03-12T02:49:13.309Z,14.80
2023-03-12T02:52:02.060Z,14.80
2023-03-12T02:54:50.524Z,14.80
2023-03-12T02:57:38.981Z,14.80
2023-03-12T03:00:30.852Z,14.70
2023-03-12T03:03:19.369Z,14.70
2023-03-12T03:06:07.884Z,14.80
2023-03-12T03:08:56.375Z,14.80
2023-03-12T03:11:44.808Z,14.70
2023-03-12T03:14:33.267Z,14.70
2023-03-12T03:17:23.445Z,14.70
2023-03-12T03:20:12.621Z,14.60
2023-03-12T03:23:01.183Z,14.60
2023-03-12T03:25:49.647Z,14.60
2023-03-12T03:28:38.274Z,14.50
2023-03-12T03:31:27.025Z,14.50
2023-03-12T03:34:16.938Z,14.50
2023-03-12T03:37:05.599Z,14.50
2023-03-12T03:39:54.320Z,14.40
2023-03-12T03:42:42.808Z,14.40
2023-03-12T03:45:31.284Z,14.40
2023-03-12T03:48:19.733Z,14.40
2023-03-12T03:51:11.420Z,14.40
2023-03-12T03:54:00.385Z,14.40
2023-03-12T03:56:48.881Z,14.40
2023-03-12T03:59:37.504Z,14.40
2023-03-12T04:02:26.333Z,14.40
2023-03-12T04:05:16.073Z,14.50
2023-03-12T04:08:06.435Z,14.50
2023-03-12T04:10:54.913Z,14.40
2023-03-12T04:13:44.090Z,14.40
2023-03-12T04:16:32.588Z,14.40
2023-03-12T04:19:21.393Z,14.40
2023-03-12T04:22:09.835Z,14.20
2023-03-12T04:24:59.927Z,14.30
2023-03-12T04:27:48.435Z,14.20
2023-03-12T04:30:38.321Z,14.30
2023-03-12T04:33:26.845Z,14.30
2023-03-12T04:36:16.348Z,14.40
2023-03-12T04:39:07.200Z,16.10
2023-03-12T04:41:57.065Z,14.50
2023-03-12T04:44:45.486Z,14.50
2023-03-12T04:47:34.813Z,14.40
2023-03-12T04:50:23.224Z,14.40
2023-03-12T04:53:11.798Z,14.40
2023-03-12T04:56:00.464Z,14.50
2023-03-12T04:58:50.400Z,14.50
2023-03-12T05:01:38.889Z,14.50
2023-03-12T05:04:27.461Z,14.50
2023-03-12T05:07:15.937Z,14.50
2023-03-12T05:10:04.795Z,14.50
2023-03-12T05:12:53.245Z,14.50
2023-03-12T05:15:43.254Z,14.40
2023-03-12T05:18:31.770Z,14.40
2023-03-12T05:21:21.828Z,14.40
2023-03-12T05:24:10.483Z,14.30
2023-03-12T05:26:58.931Z,14.30
2023-03-12T05:29:47.446Z,14.20
2023-03-12T05:32:37.399Z,14.30
2023-03-12T05:35:25.917Z,14.30
2023-03-12T05:38:14.402Z,14.30
2023-03-12T05:41:03.343Z,14.30
2023-03-12T05:43:53.146Z,14.30
2023-03-12T05:46:41.650Z,14.30
2023-03-12T05:49:32.283Z,14.30
2023-03-12T05:52:20.794Z,14.40
2023-03-12T05:55:10.359Z,14.40
2023-03-12T05:57:58.856Z,14.40
2023-03-12T06:00:47.844Z,14.30
2023-03-12T06:03:36.298Z,14.30
2023-03-12T06:06:26.254Z,14.30
2023-03-12T06:09:14.774Z,14.30
2023-03-12T06:12:03.284Z,14.20
2023-03-12T06:14:51.757Z,14.20
2023-03-12T06:17:40.213Z,14.20
2023-03-12T06:20:28.766Z,14.30
2023-03-12T06:23:21.415Z,14.40
2023-03-12T06:26:10.771Z,14.40
2023-03-12T06:28:59.288Z,14.40
2023-03-12T06:31:48.392Z,14.30
2023-03-12T06:34:36.977Z,14.20
2023-03-12T06:37:25.414Z,14.20
2023-03-12T06:40:15.568Z,14.20
2023-03-12T06:43:04.096Z,14.10
2023-03-12T06:45:53.149Z,14.00
2023-03-12T06:48:42.276Z,14.00
2023-03-12T06:51:30.699Z,14.00
2023-03-12T06:54:19.261Z,14.00
2023-03-12T06:57:09.141Z,14.00
2023-03-12T06:59:57.645Z,13.90
2023-03-12T07:02:46.118Z,13.90
2023-03-12T07:05:34.727Z,14.00
2023-03-12T07:08:23.197Z,14.00
2023-03-12T07:11:12.591Z,14.00
2023-03-12T07:14:02.734Z,13.90
2023-03-12T07:16:51.197Z,13.90
2023-03-12T07:19:39.762Z,13.90
2023-03-12T07:22:28.270Z,14.00
2023-03-12T07:25:18.646Z,14.00
2023-03-12T07:28:08.220Z,14.00
2023-03-12T07:31:03.099Z,14.00
2023-03-12T07:33:51.713Z,14.10
2023-03-12T07:36:40.449Z,14.10
2023-03-12T07:39:29.013Z,14.20
2023-03-12T07:42:17.553Z,14.20
2023-03-12T07:45:08.159Z,14.10
2023-03-12T07:47:58.072Z,14.00
2023-03-12T07:50:46.971Z,14.00
2023-03-12T07:53:35.384Z,13.90
2023-03-12T07:56:24.174Z,14.00
2023-03-12T07:59:12.902Z,13.80
2023-03-12T08:02:01.618Z,13.60
2023-03-12T08:04:51.797Z,13.80
2023-03-12T08:07:40.269Z,13.70
2023-03-12T08:10:28.872Z,13.70
2023-03-12T08:13:17.904Z,13.80
2023-03-12T08:16:09.355Z,14.30
2023-03-12T08:18:58.197Z,13.80
2023-03-12T08:21:48.064Z,13.80
2023-03-12T08:24:36.843Z,13.90
2023-03-12T08:27:25.659Z,14.00
2023-03-12T08:30:14.517Z,14.10
2023-03-12T08:33:03.027Z,14.10
2023-03-12T08:35:52.306Z,14.20
2023-03-12T08:38:42.223Z,14.40
2023-03-12T08:41:31.012Z,14.70
2023-03-12T08:44:19.498Z,14.70
2023-03-12T08:47:08.043Z,14.70
2023-03-12T08:49:56.452Z,14.70
2023-03-12T08:52:45.307Z,14.60
2023-03-12T08:55:35.112Z,14.70
2023-03-12T08:58:24.856Z,14.80
2023-03-12T09:01:14.977Z,14.80
2023-03-12T09:04:04.368Z,14.90
2023-03-12T09:06:52.884Z,15.00
2023-03-12T09:09:41.349Z,15.10
2023-03-12T09:12:31.304Z,15.20
2023-03-12T09:15:19.940Z,15.10
2023-03-12T09:18:08.393Z,15.20
2023-03-12T09:20:57.562Z,15.40
2023-03-12T09:23:46.073Z,15.60
2023-03-12T09:26:34.729Z,15.80
2023-03-12T09:29:24.806Z,15.80
2023-03-12T09:32:15.346Z,15.40
2023-03-12T09:35:03.943Z,15.40
2023-03-12T09:37:52.479Z,15.30
2023-03-12T09:40:41.427Z,15.60
2023-03-12T09:43:37.362Z,15.60
2023-03-12T09:46:34.252Z,15.70
2023-03-12T09:49:32.009Z,15.70
2023-03-12T09:52:26.456Z,15.70
2023-03-12T09:55:18.050Z,16.10
2023-03-12T09:58:11.745Z,16.20
2023-03-12T10:01:08.582Z,16.00
2023-03-12T10:04:08.307Z,15.90
2023-03-12T10:10:26.776Z,15.90
2023-03-12T10:13:35.779Z,15.80
2023-03-12T10:16:38.640Z,15.80
2023-03-12T10:19:53.007Z,15.90
2023-03-12T10:22:53.596Z,15.70
2023-03-12T10:25:47.350Z,16.00
2023-03-12T10:28:40.698Z,16.20
2023-03-12T10:31:33.522Z,16.40
2023-03-12T10:34:26.949Z,16.60
2023-03-12T10:37:21.710Z,16.70
2023-03-12T10:40:30.178Z,16.50
2023-03-12T10:43:18.623Z,16.50
2023-03-12T10:46:48.216Z,16.50
2023-03-12T10:49:37.627Z,16.50
2023-03-12T10:52:27.480Z,16.50
2023-03-12T10:55:23.210Z,17.00
2023-03-12T10:58:24.487Z,17.30
2023-03-12T11:01:22.272Z,17.80
2023-03-12T11:04:17.662Z,18.20
2023-03-12T11:07:19.048Z,18.20
2023-03-12T11:10:27.310Z,18.30
2023-03-12T11:13:29.519Z,18.50
2023-03-12T11:16:31.440Z,18.60
2023-03-12T11:19:29.707Z,18.90
2023-03-12T11:22:30.924Z,19.20
2023-03-12T11:25:26.137Z,19.30
2023-03-12T11:28:22.217Z,19.50
2023-03-12T11:31:16.816Z,19.50
2023-03-12T11:37:07.460Z,18.30
2023-03-12T11:40:23.427Z,18.30
2023-03-12T11:43:42.089Z,17.60
2023-03-12T11:46:42.903Z,17.40
2023-03-12T11:49:52.984Z,17.90
2023-03-12T11:52:52.625Z,18.50
2023-03-12T11:55:54.993Z,19.00
2023-03-12T11:58:58.546Z,19.40
2023-03-12T12:01:59.276Z,19.80
2023-03-12T12:05:01.391Z,19.90
2023-03-12T12:08:06.043Z,19.10
2023-03-12T12:11:02.592Z,19.80
2023-03-12T12:14:05.376Z,19.60
2023-03-12T12:17:06.929Z,20.00
2023-03-12T12:20:10.447Z,20.40
2023-03-12T12:23:11.462Z,20.80
2023-03-12T12:26:07.085Z,21.00
2023-03-12T12:29:20.799Z,21.40
2023-03-12T12:32:18.347Z,21.50
2023-03-12T12:35:25.699Z,21.40
2023-03-12T12:38:21.133Z,21.10
2023-03-12T12:41:12.448Z,21.20
2023-03-12T12:44:03.847Z,21.30
2023-03-12T12:47:01.296Z,21.30
2023-03-12T12:49:52.083Z,21.50
2023-03-12T12:52:40.828Z,21.80
2023-03-12T12:55:34.710Z,22.00
2023-03-12T12:58:45.067Z,22.10
2023-03-12T13:01:35.184Z,21.70
2023-03-12T13:04:29.468Z,21.60
2023-03-12T13:07:34.205Z,21.90
2023-03-12T13:10:53.084Z,22.20
2023-03-12T13:13:50.100Z,22.50
2023-03-12T13:16:40.150Z,22.50
2023-03-12T13:19:30.141Z,22.60
2023-03-12T13:22:29.170Z,22.80
2023-03-12T13:25:30.167Z,22.90
2023-03-12T13:28:37.499Z,22.90
2023-03-12T13:31:37.752Z,23.00
2023-03-12T13:34:57.379Z,23.00
2023-03-12T13:38:01.127Z,23.10
2023-03-12T13:41:00.883Z,23.10
2023-03-12T13:43:54.616Z,23.10
2023-03-12T13:46:46.955Z,23.20
2023-03-12T13:49:38.584Z,23.30
2023-03-12T13:52:31.065Z,23.30
2023-03-12T13:55:25.673Z,23.30
2023-03-12T13:58:21.488Z,23.30
2023-03-12T14:01:16.312Z,23.20
2023-03-12T14:04:08.880Z,23.20
2023-03-12T14:07:11.353Z,23.20
2023-03-12T14:10:11.568Z,22.90
2023-03-12T14:13:13.812Z,22.70
2023-03-12T14:16:09.417Z,22.70
2023-03-12T14:18:58.202Z,22.80
2023-03-12T14:21:49.854Z,22.70
2023-03-12T14:24:41.490Z,22.70
2023-03-12T14:27:34.278Z,22.70
2023-03-12T14:30:25.766Z,22.80
2023-03-12T14:33:16.032Z,22.80
2023-03-12T14:36:09.671Z,22.60
2023-03-12T14:39:09.826Z,22.50
2023-03-12T14:42:01.947Z,22.60
2023-03-12T14:45:00.217Z,22.50
2023-03-12T14:47:53.598Z,22.40
2023-03-12T14:50:42.627Z,22.30
2023-03-12T14:53:33.304Z,22.30
2023-03-12T14:56:29.480Z,22.20
2023-03-12T14:59:31.203Z,22.10
2023-03-12T15:02:21.554Z,21.90
2023-03-12T15:05:18.690Z,21.90
2023-03-12T15:08:08.955Z,21.90
2023-03-12T15:11:00.100Z,21.60
2023-03-12T15:13:48.734Z,21.60
2023-03-12T15:16:38.125Z,21.50
2023-03-12T15:19:44.980Z,21.40
2023-03-12T15:22:34.094Z,21.30
2023-03-12T15:25:27.558Z,21.30
2023-03-12T15:28:28.774Z,21.30
2023-03-12T15:31:18.597Z,21.20
2023-03-12T15:34:07.698Z,21.10
2023-03-12T15:36:57.728Z,21.10
2023-03-12T15:39:50.783Z,21.00
2023-03-12T15:42:42.305Z,21.00
2023-03-12T15:45:51.989Z,20.90
2023-03-12T15:48:42.232Z,20.90
2023-03-12T15:51:34.038Z,20.80
2023-03-12T15:54:27.516Z,20.70
2023-03-12T16:00:23.160Z,20.50
2023-03-12T16:03:17.496Z,20.20
2023-03-12T16:06:06.392Z,20.10
2023-03-12T16:08:57.449Z,20.10
2023-03-12T16:11:48.136Z,20.00
2023-03-12T16:14:37.098Z,19.80
2023-03-12T16:17:25.631Z,19.70
2023-03-12T16:20:17.536Z,19.50
2023-03-12T16:23:06.164Z,19.50
2023-03-12T16:25:56.553Z,19.40
2023-03-12T16:28:46.492Z,19.30
2023-03-12T16:31:35.043Z,19.40
2023-03-12T16:34:24.010Z,19.40
2023-03-12T16:37:13.181Z,19.30
2023-03-12T16:40:01.652Z,19.20
2023-03-12T16:42:51.412Z,19.20
2023-03-12T16:48:32.968Z,19.10
2023-03-12T16:51:21.827Z,19.00
2023-03-12T16:54:12.057Z,19.00
2023-03-12T16:57:01.070Z,18.90
2023-03-12T16:59:49.594Z,18.90
2023-03-12T17:02:40.341Z,18.80
2023-03-12T17:05:30.687Z,18.80
2023-03-12T17:08:19.155Z,18.80
2023-03-12T17:11:16.311Z,18.70
2023-03-12T17:14:11.420Z,18.60
2023-03-12T17:16:59.880Z,18.60
2023-03-12T17:19:49.949Z,18.50
2023-03-12T17:22:38.580Z,18.50
2023-03-12T17:25:29.304Z,18.50
2023-03-12T17:28:17.895Z,19.40
2023-03-12T17:31:06.995Z,18.30
2023-03-12T17:33:55.544Z,18.30
2023-03-12T17:36:45.429Z,18.30
2023-03-12T17:39:34.996Z,18.30
2023-03-12T17:42:23.428Z,18.40
2023-03-12T17:45:12.523Z,18.40
2023-03-12T17:48:01.209Z,18.30
2023-03-12T17:50:49.744Z,18.30
2023-03-12T17:53:41.968Z,18.20
2023-03-12T17:56:30.908Z,18.20
2023-03-12T17:59:19.308Z,18.10
2023-03-12T18:02:08.105Z,18.10
2023-03-12T18:04:56.618Z,18.00
2023-03-12T18:07:45.080Z,17.80
2023-03-12T18:10:35.974Z,17.80
2023-03-12T18:13:24.562Z,17.70
2023-03-12T18:16:13.598Z,17.70
2023-03-12T18:19:02.321Z,17.60
2023-03-12T18:21:50.856Z,17.60
2023-03-12T18:24:39.389Z,17.60
2023-03-12T18:27:29.191Z,17.50
2023-03-12T18:30:18.790Z,17.50
2023-03-12T18:33:07.413Z,17.40
2023-03-12T18:35:55.936Z,17.40
2023-03-12T18:38:44.586Z,17.30
2023-03-12T18:41:33.419Z,17.30
2023-03-12T18:44:23.394Z,17.30
2023-03-12T18:50:00.709Z,17.30
2023-03-12T18:52:49.462Z,17.10
2023-03-12T18:55:37.933Z,17.00
2023-03-12T18:58:28.170Z,16.90
2023-03-12T19:01:18.153Z,16.90
2023-03-12T19:04:06.814Z,16.90
2023-03-12T19:06:55.391Z,16.80
2023-03-12T19:09:44.027Z,16.80
2023-03-12T19:12:39.433Z,16.80
2023-03-12T19:15:39.219Z,16.80
2023-03-12T19:18:29.746Z,16.70
2023-03-12T19:21:08.835Z,16.60
2023-03-12T19:23:57.986Z,17.30
